Terminal Aerodrome Forecast
Issued by NWS

Home | Current Version | Previous Version | Text Only | Print | Product List | Glossary Off
Versions: 1 2 3 4 5 6 7 8 9 10 11 12 13 14 15 16 17 18 19 20

000
FTUS43 KMPX 280621 AAA
TAFRWF
TAF AMD
KRWF 280621Z 2806/2906 08011G20KT 3SM -SHRA BR BKN006 OVC015
     FM280800 06012G18KT 4SM -RA BR BKN008 OVC015
     FM281300 06010KT 6SM -SHRA BR OVC020
     FM282000 05009KT P6SM OVC040
     FM290200 03005KT P6SM OVC080=

USA.gov is the U.S. government's official web portal to all federal, state and local government web resources and services.